Time;durP1;ratioP1;P1;durP2;ratioP2;P2;SDS_P1;SDS_P2;PMS_P1;PMS_P2;Temp;Humidity;BMP_temperature;BMP_pressure;BME280_temperature;BME280_humidity;BME280_pressure;Samples;Min_cycle;Max_cycle;Signal;HPM_P1;HPM_P2
2022/11/16 00:02:12;;;;;;;86.88;57.40;;;230.60;2252.80;;;;;;5155384;27;20022;-61
2022/11/16 00:04:38;;;;;;;63.10;42.28;;;230.60;2252.80;;;;;;5155181;27;20042;-61
2022/11/16 00:07:05;;;;;;;103.82;63.58;;;230.60;2252.80;;;;;;5155317;27;20023;-62
2022/11/16 00:09:31;;;;;;;92.18;56.67;;;230.50;2252.80;;;;;;5155027;27;20030;-62
2022/11/16 00:12:00;;;;;;;59.35;41.22;;;230.80;2252.80;;;;;;5155067;27;20505;-62
2022/11/16 00:14:28;;;;;;;38.15;27.75;;;230.60;2252.80;;;;;;5155459;27;20415;-61
2022/11/16 00:16:55;;;;;;;38.20;26.60;;;230.60;2252.80;;;;;;5155474;27;20102;-61
2022/11/16 00:19:21;;;;;;;48.20;31.52;;;230.60;2252.80;;;;;;5155000;27;20019;-61
2022/11/16 00:21:47;;;;;;;45.15;32.30;;;230.60;2252.80;;;;;;5154778;27;20055;-62
2022/11/16 00:24:14;;;;;;;46.90;31.50;;;230.60;2252.80;;;;;;5154864;27;20115;-61
2022/11/16 00:26:40;;;;;;;81.85;48.83;;;230.50;2252.80;;;;;;5154707;27;20029;-61
2022/11/16 00:29:19;;;;;;;202.30;108.90;;;230.60;2252.80;;;;;;5154807;27;20026;-62
2022/11/16 00:31:46;;;;;;;93.20;54.08;;;230.60;2252.80;;;;;;5154926;27;20102;-60
2022/11/16 00:34:12;;;;;;;53.42;34.05;;;230.60;2252.80;;;;;;5154819;27;20027;-61
2022/11/16 00:36:38;;;;;;;50.00;29.95;;;230.60;2252.80;;;;;;5154423;27;20015;-62
2022/11/16 00:39:03;;;;;;;38.20;25.05;;;230.60;2252.80;;;;;;5154835;27;20034;-60
2022/11/16 00:41:29;;;;;;;41.67;26.95;;;230.60;2252.80;;;;;;5154437;27;20030;-62
2022/11/16 00:43:55;;;;;;;98.80;51.17;;;230.60;2252.80;;;;;;5154697;27;20050;-62
2022/11/16 00:46:21;;;;;;;61.42;38.53;;;205.70;2252.80;;;;;;5154367;27;20017;-61
2022/11/16 00:48:47;;;;;;;92.97;56.00;;;230.60;2252.80;;;;;;5154435;27;20098;-62
2022/11/16 00:51:13;;;;;;;70.72;45.50;;;230.60;2252.80;;;;;;5154615;27;20137;-62
2022/11/16 00:53:39;;;;;;;57.42;39.10;;;230.60;2252.80;;;;;;5154522;27;20075;-62
2022/11/16 00:56:05;;;;;;;56.75;36.97;;;230.60;2252.80;;;;;;5154456;27;20023;-62
2022/11/16 00:58:30;;;;;;;53.10;36.72;;;230.60;2252.80;;;;;;5154297;27;20109;-62
2022/11/16 01:00:56;;;;;;;47.72;33.72;;;230.50;2252.80;;;;;;5153959;27;20018;-60
2022/11/16 01:03:22;;;;;;;78.50;47.97;;;230.50;2252.80;;;;;;5154226;27;20034;-61
2022/11/16 01:05:47;;;;;;;130.55;90.90;;;230.50;2252.80;;;;;;5154120;27;20052;-62
2022/11/16 01:08:13;;;;;;;156.43;98.85;;;230.50;2252.80;;;;;;5154047;27;20023;-62
2022/11/16 01:10:40;;;;;;;63.95;42.40;;;230.50;2252.80;;;;;;5154033;27;20526;-62
2022/11/16 01:13:06;;;;;;;72.25;44.15;;;230.40;2252.80;;;;;;5154215;27;20011;-62
2022/11/16 01:15:32;;;;;;;63.78;40.95;;;230.40;2252.80;;;;;;5154114;27;20027;-62
2022/11/16 01:17:58;;;;;;;52.65;33.65;;;230.40;2252.80;;;;;;5153936;27;20019;-62
2022/11/16 01:20:27;;;;;;;50.95;33.70;;;230.40;2176.00;;;;;;5154183;27;20026;-61
2022/11/16 01:22:53;;;;;;;45.17;32.25;;;230.40;2073.60;;;;;;5153867;27;20033;-62
2022/11/16 01:25:19;;;;;;;91.40;56.15;;;205.70;2252.80;;;;;;5153464;27;20038;-61
2022/11/16 01:27:45;;;;;;;94.78;65.47;;;205.70;2252.80;;;;;;5153844;27;20019;-62
2022/11/16 01:30:13;;;;;;;59.85;37.70;;;205.70;1868.80;;;;;;5153538;27;20027;-61
2022/11/16 01:32:38;;;;;;;48.58;34.08;;;205.60;2252.80;;;;;;5153521;27;20555;-62
2022/11/16 01:35:04;;;;;;;62.40;40.40;;;205.60;2252.80;;;;;;5153666;27;20058;-62
2022/11/16 01:37:31;;;;;;;171.13;101.72;;;205.60;2176.00;;;;;;5153411;27;20418;-61
2022/11/16 01:39:57;;;;;;;135.95;78.40;;;205.60;2048.00;;;;;;5153269;27;20491;-62
2022/11/16 01:42:26;;;;;;;96.28;57.47;;;205.60;2176.00;;;;;;5153226;27;20472;-61
2022/11/16 01:45:18;;;;;;;138.75;75.65;;;205.70;2099.20;;;;;;5153141;27;20027;-61
2022/11/16 01:47:44;;;;;;;112.68;67.90;;;205.70;2252.80;;;;;;5142353;27;20109;-61
2022/11/16 01:50:14;;;;;;;157.75;110.35;;;205.60;2252.80;;;;;;5153607;27;20023;-62
2022/11/16 01:52:52;;;;;;;151.82;105.47;;;205.40;2252.80;;;;;;5153256;27;20046;-61
2022/11/16 01:55:19;;;;;;;133.18;92.97;;;205.40;2252.80;;;;;;5152970;27;20023;-62
2022/11/16 01:57:46;;;;;;;122.00;81.78;;;205.50;2252.80;;;;;;5153306;27;20027;-61
2022/11/16 02:00:13;;;;;;;163.20;111.03;;;205.50;2252.80;;;;;;5153198;27;20033;-61
2022/11/16 02:02:40;;;;;;;157.15;106.60;;;205.50;2252.80;;;;;;5152875;27;20033;-61
2022/11/16 02:05:06;;;;;;;156.70;105.53;;;205.50;2252.80;;;;;;5153058;27;20042;-61
2022/11/16 02:10:59;;;;;;;36.90;26.17;;;205.60;2252.80;;;;;;5131511;27;20046;-61
2022/11/16 02:13:49;;;;;;;62.65;44.70;;;205.60;2252.80;;;;;;5132235;27;20019;-61
2022/11/16 02:16:27;;;;;;;38.13;28.77;;;205.60;2252.80;;;;;;5132164;27;20110;-62
2022/11/16 02:19:50;;;;;;;45.25;29.80;;;205.70;2252.80;;;;;;5132122;27;20023;-61
2022/11/16 02:22:30;;;;;;;45.38;27.27;;;205.60;2252.80;;;;;;5048831;28;20064;-62
2022/11/16 02:25:06;;;;;;;50.88;35.78;;;205.60;2252.80;;;;;;5048826;28;20127;-62
2022/11/16 02:27:33;;;;;;;50.35;36.17;;;205.50;2252.80;;;;;;5048812;28;20095;-62
2022/11/16 02:29:59;;;;;;;47.22;34.30;;;205.50;1996.80;;;;;;5048339;28;20071;-61
2022/11/16 02:32:33;;;;;;;57.17;31.25;;;205.60;2252.80;;;;;;5048689;28;20017;-62
2022/11/16 02:35:05;;;;;;;44.17;31.33;;;205.50;2252.80;;;;;;5048305;28;20491;-62
2022/11/16 02:37:39;;;;;;;40.63;29.63;;;205.60;2252.80;;;;;;5048301;28;20099;-62
2022/11/16 02:40:09;;;;;;;35.47;26.48;;;205.70;2252.80;;;;;;5048431;28;20041;-61
2022/11/16 02:42:51;;;;;;;138.23;96.93;;;230.40;2252.80;;;;;;5048210;28;20053;-62
2022/11/16 02:45:24;;;;;;;87.80;60.75;;;205.60;2252.80;;;;;;5048108;28;20037;-63
2022/11/16 02:47:53;;;;;;;100.00;70.93;;;205.70;2252.80;;;;;;5048091;28;20081;-63
2022/11/16 02:50:22;;;;;;;95.60;62.03;;;230.40;2252.80;;;;;;5048229;28;20558;-63
2022/11/16 02:52:48;;;;;;;117.13;84.35;;;230.60;2252.80;;;;;;5082656;27;20110;-63
2022/11/16 02:55:14;;;;;;;111.53;83.75;;;230.60;2252.80;;;;;;5131410;27;20563;-61
2022/11/16 02:57:56;;;;;;;122.03;81.72;;;230.50;2252.80;;;;;;5131290;27;20113;-61
2022/11/16 03:00:54;;;;;;;88.20;59.65;;;230.60;2252.80;;;;;;5131438;27;20488;-61
2022/11/16 03:03:47;;;;;;;83.80;61.08;;;230.60;2252.80;;;;;;5028036;28;20040;-61
2022/11/16 03:06:24;;;;;;;77.85;51.30;;;230.60;2252.80;;;;;;5028300;28;20064;-62
2022/11/16 03:09:03;;;;;;;66.82;48.95;;;230.50;2252.80;;;;;;5027850;28;20404;-62
2022/11/16 03:14:21;;;;;;;67.88;49.60;;;230.40;2252.80;;;;;;5027966;28;20116;-63
2022/11/16 03:16:52;;;;;;;62.10;43.83;;;230.40;2252.80;;;;;;5027940;28;20033;-62
2022/11/16 03:19:40;;;;;;;50.10;35.88;;;205.70;2252.80;;;;;;5027808;28;20527;-62
2022/11/16 03:22:27;;;;;;;40.03;27.08;;;205.70;2252.80;;;;;;5027584;28;20046;-62
2022/11/16 03:24:54;;;;;;;29.98;19.63;;;230.40;2252.80;;;;;;5027967;28;20042;-63
2022/11/16 03:27:25;;;;;;;39.30;27.58;;;230.40;2252.80;;;;;;5027601;28;20108;-62
2022/11/16 03:30:05;;;;;;;53.20;31.05;;;205.70;2252.80;;;;;;5027565;28;20029;-62
2022/11/16 03:32:40;;;;;;;44.15;30.05;;;205.70;2252.80;;;;;;5027705;28;20030;-61
2022/11/16 03:35:15;;;;;;;65.32;42.67;;;205.70;2252.80;;;;;;5027754;28;20379;-62
2022/11/16 03:37:44;;;;;;;61.13;39.20;;;205.70;2252.80;;;;;;5027909;28;20026;-61
2022/11/16 03:40:11;;;;;;;82.07;49.17;;;205.60;2252.80;;;;;;5079476;28;20481;-62
2022/11/16 03:42:38;;;;;;;90.75;57.20;;;205.60;2252.80;;;;;;5130600;28;20070;-61
2022/11/16 03:45:05;;;;;;;151.27;98.18;;;205.60;2252.80;;;;;;5130619;28;20118;-61
2022/11/16 03:47:31;;;;;;;128.93;87.18;;;205.60;2252.80;;;;;;5130896;28;20117;-62
2022/11/16 03:49:57;;;;;;;124.72;90.47;;;205.60;2252.80;;;;;;5130689;28;20464;-63
2022/11/16 03:52:23;;;;;;;127.18;93.13;;;205.60;2252.80;;;;;;5131052;28;20027;-60
2022/11/16 03:54:48;;;;;;;127.43;91.05;;;205.70;2252.80;;;;;;5130505;28;20027;-62
2022/11/16 03:57:17;;;;;;;124.35;88.80;;;230.40;2252.80;;;;;;5130774;28;20023;-61
2022/11/16 03:59:43;;;;;;;121.28;91.03;;;230.40;2252.80;;;;;;5130760;28;20011;-62
2022/11/16 04:02:09;;;;;;;70.35;47.70;;;230.50;2252.80;;;;;;5130588;28;20031;-62
2022/11/16 04:29:14;;;;;;;77.35;48.85;;;230.80;2252.80;;;;;;5130565;28;20026;-60
2022/11/16 04:39:58;;;;;;;18.42;15.95;;;230.80;1894.40;;;;;;5133958;27;20038;-60
2022/11/16 04:42:24;;;;;;;17.10;14.07;;;230.90;2252.80;;;;;;5133845;27;20036;-60
2022/11/16 04:47:35;;;;;;;21.33;12.65;;;230.90;2252.80;;;;;;5030582;28;20045;-60
2022/11/16 04:50:01;;;;;;;16.85;11.82;;;231.00;2252.80;;;;;;5030494;28;20042;-61
2022/11/16 04:52:27;;;;;;;17.27;12.65;;;231.00;2252.80;;;;;;5030435;28;20500;-61
2022/11/16 04:54:52;;;;;;;17.00;12.55;;;231.00;2252.80;;;;;;5030530;28;20029;-61
2022/11/16 04:57:18;;;;;;;18.90;14.23;;;231.00;2252.80;;;;;;5030252;28;20021;-61
2022/11/16 04:59:44;;;;;;;21.83;15.70;;;231.00;2252.80;;;;;;5030243;28;20423;-62
2022/11/16 05:02:09;;;;;;;13.63;11.32;;;231.10;2252.80;;;;;;5030191;28;20029;-62
2022/11/16 05:04:39;;;;;;;14.85;10.98;;;231.10;2252.80;;;;;;5030466;28;20053;-61
2022/11/16 05:07:09;;;;;;;15.77;10.48;;;231.20;2252.80;;;;;;5030434;28;20021;-61
2022/11/16 05:09:40;;;;;;;17.42;12.32;;;231.20;2252.80;;;;;;5030247;28;20037;-62
2022/11/16 05:12:06;;;;;;;15.50;10.45;;;256.00;2252.80;;;;;;5030166;28;20045;-62
2022/11/16 05:14:32;;;;;;;13.30;9.57;;;256.10;2252.80;;;;;;5030079;28;20026;-62
2022/11/16 05:16:58;;;;;;;33.53;22.25;;;256.10;2252.80;;;;;;5029993;28;20040;-62
2022/11/16 05:22:08;;;;;;;15.43;11.77;;;256.30;2252.80;;;;;;5030136;28;20029;-62
2022/11/16 05:24:33;;;;;;;16.00;10.57;;;256.30;2252.80;;;;;;5076350;27;20051;-61
2022/11/16 05:27:06;;;;;;;112.85;63.80;;;256.30;2252.80;;;;;;5132882;27;20469;-62
2022/11/16 05:29:33;;;;;;;96.10;54.20;;;256.40;2252.80;;;;;;5133294;27;20026;-60
2022/11/16 05:31:59;;;;;;;97.28;59.42;;;256.40;2252.80;;;;;;5132934;27;20033;-60
2022/11/16 05:34:25;;;;;;;62.28;35.30;;;256.50;2252.80;;;;;;5133076;27;20098;-59
2022/11/16 05:36:51;;;;;;;54.05;37.33;;;256.60;2252.80;;;;;;5132608;27;20031;-60
2022/11/16 05:39:18;;;;;;;95.10;69.90;;;256.50;2252.80;;;;;;5132539;27;20118;-61
2022/11/16 05:41:44;;;;;;;103.50;76.70;;;256.20;2252.80;;;;;;5132811;27;20043;-61
2022/11/16 05:44:10;;;;;;;77.53;59.88;;;256.00;2252.80;;;;;;5132326;27;20071;-60
2022/11/16 05:46:35;;;;;;;75.68;59.40;;;256.20;2252.80;;;;;;5131576;27;20484;-60
2022/11/16 05:49:01;;;;;;;82.00;57.97;;;256.20;2252.80;;;;;;5132541;27;20023;-63
2022/11/16 05:51:27;;;;;;;60.92;41.05;;;256.30;2252.80;;;;;;5132517;27;20079;-61
2022/11/16 05:53:53;;;;;;;42.38;30.15;;;256.30;2252.80;;;;;;5132489;27;20019;-62
2022/11/16 05:56:18;;;;;;;45.42;31.67;;;256.60;2252.80;;;;;;5132257;27;20027;-61
2022/11/16 05:58:45;;;;;;;54.63;41.33;;;256.70;2252.80;;;;;;5132640;27;20023;-62
2022/11/16 06:01:11;;;;;;;90.13;59.67;;;256.70;2252.80;;;;;;5132078;27;20031;-62
2022/11/16 06:03:37;;;;;;;144.23;109.43;;;256.50;2252.80;;;;;;5132469;27;20348;-61
2022/11/16 06:06:03;;;;;;;142.90;107.38;;;256.20;2252.80;;;;;;5132583;27;20023;-61
2022/11/16 06:08:29;;;;;;;121.82;93.53;;;256.30;2252.80;;;;;;5131859;27;20034;-63
2022/11/16 06:10:55;;;;;;;114.10;88.88;;;256.20;2252.80;;;;;;5132331;27;20084;-62
2022/11/16 06:13:21;;;;;;;103.03;72.25;;;256.30;2252.80;;;;;;5131945;27;20019;-61
2022/11/16 06:15:47;;;;;;;97.10;77.97;;;256.20;2252.80;;;;;;5131852;27;20106;-62
2022/11/16 06:18:12;;;;;;;118.65;88.38;;;256.40;2252.80;;;;;;5132159;27;20030;-62
2022/11/16 06:20:39;;;;;;;188.77;140.85;;;256.60;2252.80;;;;;;5131953;27;20054;-62
2022/11/16 06:23:05;;;;;;;174.82;135.23;;;256.60;2252.80;;;;;;5131844;27;20023;-61
2022/11/16 06:25:31;;;;;;;98.72;77.38;;;256.70;2252.80;;;;;;5131776;27;20035;-63
2022/11/16 06:27:57;;;;;;;121.80;92.85;;;256.80;2252.80;;;;;;5132072;27;20110;-63
2022/11/16 06:30:23;;;;;;;91.30;68.22;;;256.80;2252.80;;;;;;5131725;27;20027;-62
2022/11/16 06:32:48;;;;;;;78.32;58.95;;;256.90;2252.80;;;;;;5131737;27;20076;-62
2022/11/16 06:35:15;;;;;;;69.65;54.45;;;281.60;2278.40;;;;;;5131820;27;20020;-63
2022/11/16 06:37:41;;;;;;;116.65;81.88;;;281.70;2278.40;;;;;;5131381;27;20101;-62
2022/11/16 06:40:08;;;;;;;478.77;352.30;;;281.70;2278.40;;;;;;5131343;27;20071;-62
2022/11/16 06:42:34;;;;;;;355.52;270.60;;;281.90;2278.40;;;;;;5131713;27;20390;-62
2022/11/16 06:44:59;;;;;;;222.90;162.48;;;281.90;2278.40;;;;;;5131084;27;20038;-62
2022/11/16 06:47:25;;;;;;;167.32;125.72;;;281.90;2278.40;;;;;;5131824;27;20035;-62
2022/11/16 06:49:51;;;;;;;156.65;111.25;;;281.90;2278.40;;;;;;5131352;27;20030;-62
2022/11/16 06:52:16;;;;;;;125.68;91.75;;;281.90;2278.40;;;;;;5131450;27;20015;-63
2022/11/16 06:54:42;;;;;;;123.20;85.45;;;282.10;2278.40;;;;;;5131587;27;20102;-62
2022/11/16 06:57:08;;;;;;;107.57;74.78;;;282.20;2278.40;;;;;;5131174;27;20019;-62
2022/11/16 06:59:33;;;;;;;124.20;98.05;;;282.20;2278.40;;;;;;5131513;27;20525;-62
2022/11/16 07:01:59;;;;;;;121.72;97.60;;;282.30;2278.40;;;;;;5131326;27;20023;-62
2022/11/16 07:04:25;;;;;;;138.13;107.65;;;282.10;2278.40;;;;;;5131413;27;20113;-61
2022/11/16 07:06:51;;;;;;;173.40;124.90;;;281.90;2278.40;;;;;;5131091;27;20023;-61
2022/11/16 07:09:17;;;;;;;179.30;131.32;;;281.70;2278.40;;;;;;5130934;27;20473;-62
2022/11/16 07:11:43;;;;;;;187.25;133.77;;;256.90;2252.80;;;;;;5131294;27;20062;-62
2022/11/16 07:14:10;;;;;;;166.57;116.88;;;256.90;2252.80;;;;;;5131186;27;20070;-62
2022/11/16 07:16:36;;;;;;;119.35;90.05;;;281.70;2278.40;;;;;;5131261;27;20015;-62
2022/11/16 07:19:02;;;;;;;116.18;85.78;;;281.90;2278.40;;;;;;5131122;27;20027;-62
2022/11/16 07:21:28;;;;;;;73.50;52.88;;;282.10;2278.40;;;;;;5131015;27;20030;-61
2022/11/16 07:23:54;;;;;;;172.50;124.13;;;282.20;2278.40;;;;;;5131006;27;20023;-61
2022/11/16 07:26:20;;;;;;;165.70;122.90;;;282.30;2278.40;;;;;;5130728;27;20042;-63
2022/11/16 07:28:46;;;;;;;139.30;107.13;;;282.30;2278.40;;;;;;5130992;28;20027;-61
2022/11/16 07:31:13;;;;;;;141.15;112.47;;;307.20;2304.00;;;;;;5130832;27;20031;-62
2022/11/16 07:33:39;;;;;;;128.85;104.35;;;307.30;2304.00;;;;;;5130776;28;20112;-61
2022/11/16 07:36:14;;;;;;;121.88;99.88;;;307.40;2304.00;;;;;;5130907;28;20054;-61
2022/11/16 07:38:40;;;;;;;151.27;113.15;;;307.50;2304.00;;;;;;5130526;28;20024;-61
2022/11/16 07:41:09;;;;;;;166.88;128.73;;;307.60;2304.00;;;;;;5130740;28;20023;-61
2022/11/16 07:43:35;;;;;;;175.95;134.73;;;307.50;2304.00;;;;;;5130753;28;20088;-62
2022/11/16 07:46:27;;;;;;;195.10;151.63;;;307.60;2304.00;;;;;;5130338;28;20034;-61
2022/11/16 07:48:53;;;;;;;212.88;168.63;;;307.80;2304.00;;;;;;5126164;28;20036;-62
2022/11/16 07:51:19;;;;;;;261.55;202.45;;;308.10;2304.00;;;;;;5130555;28;20079;-64
2022/11/16 07:53:45;;;;;;;243.25;191.80;;;307.70;2304.00;;;;;;5131039;28;20072;-61
2022/11/16 07:56:11;;;;;;;231.98;180.32;;;307.70;2304.00;;;;;;5130582;28;20031;-61
2022/11/16 07:58:38;;;;;;;212.75;168.65;;;307.80;2304.00;;;;;;5130502;28;20080;-62
2022/11/16 08:01:05;;;;;;;237.45;188.57;;;308.00;2304.00;;;;;;5130646;28;20548;-61
2022/11/16 08:03:31;;;;;;;259.67;199.02;;;333.10;2329.60;;;;;;5130627;28;20470;-62
2022/11/16 08:06:03;;;;;;;257.40;205.35;;;332.80;2329.60;;;;;;5130510;28;20035;-63
2022/11/16 08:08:29;;;;;;;277.52;212.25;;;332.80;2329.60;;;;;;5130593;27;20214;-62
2022/11/16 08:11:03;;;;;;;261.77;207.27;;;307.90;2304.00;;;;;;5134428;27;20105;-63
2022/11/16 08:13:32;;;;;;;228.25;177.77;;;307.80;2304.00;;;;;;5134624;27;20027;-62
2022/11/16 08:16:03;;;;;;;207.13;156.52;;;308.10;2304.00;;;;;;5134279;27;20407;-62
2022/11/16 08:18:29;;;;;;;161.90;129.32;;;332.90;2329.60;;;;;;5134219;27;20076;-62
2022/11/16 08:20:57;;;;;;;169.88;135.80;;;332.90;2329.60;;;;;;5134433;27;20023;-64
2022/11/16 08:23:23;;;;;;;186.10;140.18;;;332.90;2329.60;;;;;;5134527;27;20051;-62
2022/11/16 08:25:49;;;;;;;157.80;125.07;;;333.10;2329.60;;;;;;5133911;27;20148;-58
2022/11/16 08:28:15;;;;;;;150.88;105.80;;;333.00;2329.60;;;;;;5134305;27;20042;-66
2022/11/16 08:30:40;;;;;;;109.32;85.05;;;333.10;2329.60;;;;;;5115376;27;20035;-55
2022/11/16 08:33:10;;;;;;;92.15;74.55;;;333.00;2329.60;;;;;;5134058;27;20023;-57
2022/11/16 08:35:35;;;;;;;88.28;67.90;;;333.00;2329.60;;;;;;5134007;27;20029;-55
2022/11/16 08:38:01;;;;;;;208.30;139.07;;;333.00;2329.60;;;;;;5133884;27;20020;-60
2022/11/16 08:40:27;;;;;;;102.15;79.65;;;333.00;2329.60;;;;;;5133822;27;20155;-57
2022/11/16 08:42:56;;;;;;;68.38;52.20;;;333.10;2329.60;;;;;;5133887;27;20096;-57
2022/11/16 08:45:23;;;;;;;73.15;53.10;;;332.90;2329.60;;;;;;5133661;27;20385;-57
2022/11/16 08:47:51;;;;;;;73.05;53.67;;;333.00;2329.60;;;;;;5133584;27;20047;-57
2022/11/16 08:50:17;;;;;;;198.35;134.73;;;333.20;2329.60;;;;;;5133573;27;20070;-58
2022/11/16 08:52:42;;;;;;;300.23;186.68;;;333.10;2329.60;;;;;;5134006;27;20055;-57
2022/11/16 08:55:09;;;;;;;93.55;62.38;;;333.10;2329.60;;;;;;5133763;27;20110;-59
2022/11/16 08:57:35;;;;;;;66.55;45.50;;;333.30;2329.60;;;;;;5133874;27;20019;-59
2022/11/16 09:00:01;;;;;;;68.82;48.90;;;333.40;2329.60;;;;;;5133506;27;20046;-59
2022/11/16 09:02:26;;;;;;;34.58;28.50;;;333.60;2329.60;;;;;;5133760;27;20050;-59
2022/11/16 09:04:52;;;;;;;41.00;31.67;;;358.50;2329.60;;;;;;5133434;27;20392;-59
2022/11/16 09:07:19;;;;;;;90.97;72.18;;;358.50;2329.60;;;;;;5133414;27;20023;-60
2022/11/16 09:09:44;;;;;;;70.05;51.65;;;358.40;2329.60;;;;;;5133441;27;20492;-59
2022/11/16 09:12:10;;;;;;;136.07;106.55;;;358.60;2329.60;;;;;;5133339;27;20028;-58
2022/11/16 09:14:36;;;;;;;168.20;130.45;;;358.80;2329.60;;;;;;5133171;27;20026;-57
2022/11/16 09:17:01;;;;;;;228.77;162.82;;;358.80;2329.60;;;;;;5132972;27;20015;-59
2022/11/16 09:19:27;;;;;;;469.05;355.70;;;358.80;2329.60;;;;;;5133266;27;20038;-59
2022/11/16 09:21:53;;;;;;;379.08;309.73;;;358.70;2329.60;;;;;;5132933;27;20015;-58
2022/11/16 09:24:19;;;;;;;349.83;282.55;;;333.70;2329.60;;;;;;5133039;27;20088;-59
2022/11/16 09:26:44;;;;;;;329.92;275.67;;;333.70;2329.60;;;;;;5133173;27;20034;-60
2022/11/16 09:29:12;;;;;;;340.67;277.15;;;358.60;2329.60;;;;;;5132623;27;20031;-58
2022/11/16 09:31:38;;;;;;;321.65;271.23;;;358.60;2329.60;;;;;;5132722;27;20027;-61
2022/11/16 09:34:04;;;;;;;339.08;277.48;;;358.50;2329.60;;;;;;5132983;27;20019;-61
2022/11/16 09:36:30;;;;;;;370.98;301.15;;;358.70;2329.60;;;;;;5132550;27;20024;-57
2022/11/16 09:38:56;;;;;;;449.52;342.00;;;358.50;2329.60;;;;;;5129951;27;20034;-57
2022/11/16 09:41:44;;;;;;;398.35;316.02;;;358.50;2329.60;;;;;;5131281;27;20027;-58
2022/11/16 09:44:30;;;;;;;473.83;371.58;;;358.60;2329.60;;;;;;5131266;27;20054;-60
2022/11/16 09:46:58;;;;;;;513.63;395.80;;;358.50;2329.60;;;;;;5131046;27;20088;-60
2022/11/16 09:49:38;;;;;;;423.85;322.15;;;358.50;2329.60;;;;;;5131352;27;20381;-59
2022/11/16 09:52:24;;;;;;;423.50;337.85;;;358.50;2329.60;;;;;;5130666;27;20088;-58
2022/11/16 09:54:52;;;;;;;295.25;236.93;;;358.60;2329.60;;;;;;5112833;27;20038;-58
2022/11/16 09:57:24;;;;;;;354.70;285.02;;;358.50;2329.60;;;;;;5130724;27;20026;-58
2022/11/16 09:59:57;;;;;;;374.98;308.38;;;358.70;2329.60;;;;;;5130543;27;20439;-58
2022/11/16 10:02:35;;;;;;;336.53;270.53;;;358.90;2329.60;;;;;;5130829;27;20095;-58
2022/11/16 10:05:30;;;;;;;318.40;262.92;;;359.30;2329.60;;;;;;5132790;27;20290;-57
2022/11/16 10:08:11;;;;;;;290.85;239.95;;;384.20;2329.60;;;;;;5128350;27;20082;-57
2022/11/16 10:11:26;;;;;;;255.95;214.18;;;384.70;2329.60;;;;;;5130469;27;20058;-57
2022/11/16 10:13:51;;;;;;;260.20;208.45;;;409.60;2355.20;;;;;;5123236;27;20047;-60
2022/11/16 10:16:33;;;;;;;230.25;191.98;;;409.90;2355.20;;;;;;5130321;27;20031;-61
2022/11/16 10:19:20;;;;;;;150.27;120.47;;;410.20;2355.20;;;;;;5129810;27;20027;-61
2022/11/16 10:22:06;;;;;;;317.85;265.00;;;409.80;2355.20;;;;;;5130521;27;20028;-57
2022/11/16 10:24:52;;;;;;;425.80;344.98;;;384.90;2329.60;;;;;;5130369;27;20117;-62
2022/11/16 10:27:31;;;;;;;329.27;259.17;;;384.80;2329.60;;;;;;5130151;27;20019;-59
2022/11/16 10:30:18;;;;;;;341.33;271.63;;;384.90;2329.60;;;;;;5130180;27;20083;-58
2022/11/16 10:33:19;;;;;;;290.13;229.75;;;384.90;2329.60;;;;;;5129272;27;20027;-61
2022/11/16 10:35:53;;;;;;;178.57;140.73;;;409.60;2355.20;;;;;;5066550;28;20521;-60
2022/11/16 10:38:26;;;;;;;199.48;155.27;;;409.70;2355.20;;;;;;5068077;28;20032;-58
2022/11/16 10:40:58;;;;;;;179.85;140.13;;;409.90;2355.20;;;;;;5068582;28;20040;-58
2022/11/16 10:43:28;;;;;;;117.75;94.85;;;409.60;2355.20;;;;;;5068214;28;20060;-60
2022/11/16 10:46:12;;;;;;;169.77;131.15;;;384.80;2329.60;;;;;;5068237;28;20426;-58
2022/11/16 10:48:41;;;;;;;124.05;97.85;;;384.70;2329.60;;;;;;5068034;28;20140;-58
2022/11/16 10:51:08;;;;;;;152.45;118.15;;;384.90;2329.60;;;;;;5068159;28;20035;-58
2022/11/16 10:53:40;;;;;;;135.02;118.28;;;384.70;2329.60;;;;;;5068151;28;20033;-60
2022/11/16 10:56:36;;;;;;;131.50;105.68;;;384.70;2329.60;;;;;;5075080;28;20029;-58
2022/11/16 10:59:09;;;;;;;138.18;117.25;;;384.70;2329.60;;;;;;5076630;28;20043;-59
2022/11/16 11:01:49;;;;;;;213.38;175.43;;;384.80;2329.60;;;;;;5078528;28;20034;-59
2022/11/16 11:04:17;;;;;;;138.30;110.93;;;409.60;2355.20;;;;;;5085121;28;20035;-60
2022/11/16 11:06:43;;;;;;;142.45;110.90;;;384.90;2329.60;;;;;;5088154;28;20533;-59
2022/11/16 11:09:34;;;;;;;157.07;117.78;;;384.90;2329.60;;;;;;5087913;28;20514;-60
2022/11/16 11:15:21;;;;;;;159.25;129.57;;;409.80;2355.20;;;;;;5151978;27;20084;-60
2022/11/16 11:18:07;;;;;;;161.32;128.15;;;410.10;2355.20;;;;;;5151730;27;20034;-59
2022/11/16 11:20:33;;;;;;;118.45;99.82;;;384.90;2329.60;;;;;;5151546;27;20346;-59
2022/11/16 11:23:03;;;;;;;121.00;99.55;;;384.70;2329.60;;;;;;5151443;27;20078;-60
2022/11/16 11:25:35;;;;;;;147.93;114.00;;;409.70;2355.20;;;;;;5151559;27;20444;-58
2022/11/16 11:28:26;;;;;;;165.30;130.82;;;409.60;2355.20;;;;;;5151675;27;20077;-59
2022/11/16 11:30:55;;;;;;;187.35;148.05;;;409.80;2355.20;;;;;;5151644;27;20030;-60
2022/11/16 11:33:22;;;;;;;302.10;233.45;;;410.00;2355.20;;;;;;5151411;27;20022;-58
2022/11/16 11:36:21;;;;;;;268.92;224.25;;;409.80;2355.20;;;;;;5151398;27;20080;-59
2022/11/16 11:39:25;;;;;;;157.40;133.30;;;409.60;2355.20;;;;;;5151265;27;20035;-59
2022/11/16 11:42:03;;;;;;;150.80;118.88;;;409.60;2355.20;;;;;;5047349;28;20041;-60
2022/11/16 11:44:50;;;;;;;159.27;123.68;;;409.70;2355.20;;;;;;5049860;28;20400;-60
2022/11/16 11:47:38;;;;;;;148.98;115.57;;;384.90;2329.60;;;;;;5051631;28;20163;-60
2022/11/16 11:50:16;;;;;;;169.32;125.50;;;384.90;2329.60;;;;;;5051616;28;20033;-60
2022/11/16 11:52:51;;;;;;;148.93;116.63;;;384.70;2329.60;;;;;;5051502;28;20037;-60
2022/11/16 11:55:17;;;;;;;140.90;114.05;;;384.90;2329.60;;;;;;5051681;28;20045;-59
2022/11/16 11:57:46;;;;;;;147.40;124.35;;;409.90;2355.20;;;;;;5051379;28;20017;-58
2022/11/16 12:00:16;;;;;;;147.50;116.05;;;410.20;2355.20;;;;;;5051555;28;20052;-57
2022/11/16 12:03:00;;;;;;;161.80;123.80;;;409.90;2355.20;;;;;;5050812;28;20160;-57
2022/11/16 12:06:14;;;;;;;164.90;129.82;;;409.80;2355.20;;;;;;5043602;28;20099;-57
2022/11/16 12:08:42;;;;;;;157.35;128.70;;;410.20;2355.20;;;;;;5031107;28;20037;-55
2022/11/16 12:11:14;;;;;;;146.50;120.82;;;410.30;2355.20;;;;;;5041267;28;20045;-61
2022/11/16 12:14:12;;;;;;;150.10;122.68;;;410.30;2355.20;;;;;;5038519;28;21229;-59
2022/11/16 12:17:01;;;;;;;165.52;129.25;;;410.10;2355.20;;;;;;5040111;28;20655;-63
2022/11/16 12:19:56;;;;;;;194.77;149.48;;;409.90;2355.20;;;;;;5073547;28;20507;-61
2022/11/16 12:22:52;;;;;;;223.57;171.27;;;409.90;2355.20;;;;;;5078119;28;20166;-61
2022/11/16 12:25:32;;;;;;;213.52;166.98;;;410.20;2355.20;;;;;;5077217;28;20057;-58
2022/11/16 12:28:21;;;;;;;195.00;149.98;;;410.50;2355.20;;;;;;5077513;28;20021;-57
2022/11/16 12:31:22;;;;;;;192.10;153.93;;;435.30;2355.20;;;;;;5058052;28;20037;-57
2022/11/16 12:34:03;;;;;;;208.35;165.00;;;410.50;2355.20;;;;;;5059137;28;20437;-57
2022/11/16 12:36:55;;;;;;;186.95;150.10;;;410.10;2355.20;;;;;;5058032;28;20690;-59
2022/11/16 12:39:36;;;;;;;194.65;147.68;;;410.00;2355.20;;;;;;5043801;28;20032;-67
2022/11/16 12:42:08;;;;;;;177.95;135.20;;;409.80;2355.20;;;;;;5054948;28;20060;-61
2022/11/16 12:44:57;;;;;;;173.52;130.25;;;409.80;2355.20;;;;;;5056509;28;20559;-67
2022/11/16 12:48:10;;;;;;;138.43;106.78;;;409.70;2355.20;;;;;;5059121;28;20103;-64
2022/11/16 12:50:41;;;;;;;117.47;85.82;;;409.70;2355.20;;;;;;5037929;28;20029;-64
2022/11/16 12:53:16;;;;;;;107.15;82.72;;;409.70;2355.20;;;;;;5034003;28;20037;-64
2022/11/16 12:55:53;;;;;;;120.60;93.68;;;409.70;2355.20;;;;;;5026071;28;20134;-59
2022/11/16 12:58:25;;;;;;;144.38;109.00;;;409.90;2355.20;;;;;;5010544;28;20030;-61